createdAt,value
2019-01-12T00:00:24.173Z,101290.78
2019-01-12T00:02:51.251Z,101281.34
2019-01-12T00:05:18.465Z,101289.81
2019-01-12T00:07:45.697Z,101296.96
2019-01-12T00:10:12.887Z,101296.18
2019-01-12T00:12:40.371Z,101289.11
2019-01-12T00:15:07.550Z,101290.75
2019-01-12T00:17:34.759Z,101290.02
2019-01-12T00:20:02.037Z,101289.58
2019-01-12T00:22:29.325Z,101300.98
2019-01-12T00:24:56.517Z,101307.36
2019-01-12T00:27:23.711Z,101287.52
2019-01-12T00:29:51.180Z,101282.22
2019-01-12T00:32:18.391Z,101276.84
2019-01-12T00:34:45.448Z,101281.63
2019-01-12T00:37:12.629Z,101282.72
2019-01-12T00:39:39.748Z,101281.42
2019-01-12T00:42:07.223Z,101275.68
2019-01-12T00:44:34.378Z,101293.64
2019-01-12T00:47:01.928Z,101292.61
2019-01-12T00:49:29.084Z,101295.27
2019-01-12T00:51:56.268Z,101293.91
2019-01-12T00:54:23.478Z,101291.92
2019-01-12T00:56:50.870Z,101284.52
2019-01-12T00:59:18.024Z,101303.27
2019-01-12T01:01:45.224Z,101295.25
2019-01-12T01:04:12.382Z,101290.84
2019-01-12T01:06:39.567Z,101295.83
2019-01-12T01:09:08.370Z,101294.28
2019-01-12T01:11:35.750Z,101295.83
2019-01-12T01:14:03.056Z,101294.66
2019-01-12T01:16:30.271Z,101293.94
2019-01-12T01:18:57.434Z,101309.62
2019-01-12T01:21:24.614Z,101295.05
2019-01-12T01:23:51.806Z,101296.98
2019-01-12T01:26:18.987Z,101298.00
2019-01-12T01:28:46.185Z,101304.57
2019-01-12T01:31:13.407Z,101307.47
2019-01-12T01:33:40.570Z,101302.25
2019-01-12T01:36:07.679Z,101302.20
2019-01-12T01:38:34.891Z,101310.86
2019-01-12T01:41:02.063Z,101310.38
2019-01-12T01:43:29.256Z,101317.42
2019-01-12T01:45:56.468Z,101316.98
2019-01-12T01:48:23.633Z,101318.54
2019-01-12T01:50:50.763Z,101323.18
2019-01-12T01:53:17.979Z,101325.98
2019-01-12T01:55:45.128Z,101320.47
2019-01-12T01:58:12.217Z,101321.30
2019-01-12T02:00:40.030Z,101324.58
2019-01-12T02:03:07.113Z,101323.33
2019-01-12T02:05:34.231Z,101317.66
2019-01-12T02:08:01.421Z,101318.39
2019-01-12T02:10:28.896Z,101316.75
2019-01-12T02:12:56.112Z,101317.00
2019-01-12T02:15:23.342Z,101315.78
2019-01-12T02:17:50.394Z,101317.00
2019-01-12T02:20:17.558Z,101311.67
2019-01-12T02:22:45.084Z,101312.64
2019-01-12T02:25:12.764Z,101307.08
2019-01-12T02:27:39.912Z,101312.30
2019-01-12T02:30:11.494Z,101311.42
2019-01-12T02:32:38.646Z,101313.89
2019-01-12T02:35:05.918Z,101312.05
2019-01-12T02:37:33.131Z,101311.56
2019-01-12T02:40:00.383Z,101304.94
2019-01-12T02:42:27.544Z,101316.91
2019-01-12T02:44:54.660Z,101311.98
2019-01-12T02:47:21.836Z,101308.08
2019-01-12T02:49:49.002Z,101303.72
2019-01-12T02:52:16.214Z,101304.11
2019-01-12T02:54:43.388Z,101306.27
2019-01-12T02:57:10.573Z,101301.16
2019-01-12T02:59:38.032Z,101304.25
2019-01-12T03:02:05.211Z,101301.25
2019-01-12T03:04:32.366Z,101303.38
2019-01-12T03:06:59.490Z,101296.52
2019-01-12T03:09:26.633Z,101303.91
2019-01-12T03:11:53.812Z,101299.61
2019-01-12T03:14:21.112Z,101298.77
2019-01-12T03:16:48.294Z,101302.73
2019-01-12T03:19:15.458Z,101302.54
2019-01-12T03:21:44.523Z,101305.09
2019-01-12T03:24:11.738Z,101304.49
2019-01-12T03:26:38.825Z,101302.36
2019-01-12T03:29:06.038Z,101305.92
2019-01-12T03:31:33.089Z,101298.23
2019-01-12T03:34:00.250Z,101300.08
2019-01-12T03:36:27.442Z,101297.83
2019-01-12T03:38:54.632Z,101302.08
2019-01-12T03:41:21.791Z,101294.89
2019-01-12T03:43:49.017Z,101293.12
2019-01-12T03:46:16.287Z,101300.66
2019-01-12T03:48:43.465Z,101296.47
2019-01-12T03:51:10.896Z,101295.44
2019-01-12T03:53:38.252Z,101292.69
2019-01-12T03:56:05.428Z,101292.94
2019-01-12T03:58:32.655Z,101302.28
2019-01-12T04:00:59.832Z,101291.17
2019-01-12T04:03:27.001Z,101293.00
2019-01-12T04:05:54.101Z,101284.31
2019-01-12T04:08:21.197Z,101278.34
2019-01-12T04:10:48.380Z,101276.84
2019-01-12T04:13:15.598Z,101266.72
2019-01-12T04:15:42.751Z,101266.17
2019-01-12T04:18:10.212Z,101267.64
2019-01-12T04:20:37.406Z,101266.30
2019-01-12T04:23:04.567Z,101256.59
2019-01-12T04:25:33.858Z,101262.22
2019-01-12T04:28:01.190Z,101261.96
2019-01-12T04:30:28.368Z,101260.71
2019-01-12T04:32:55.420Z,101264.68
2019-01-12T04:35:22.625Z,101259.61
2019-01-12T04:37:49.788Z,101255.73
2019-01-12T04:40:18.063Z,101261.87
2019-01-12T04:42:45.295Z,101258.87
2019-01-12T04:45:12.527Z,101255.27
2019-01-12T04:47:39.582Z,101253.34
2019-01-12T04:50:10.906Z,101256.13
2019-01-12T04:52:38.096Z,101256.84
2019-01-12T04:55:05.372Z,101263.70
2019-01-12T04:57:32.885Z,101263.55
2019-01-12T05:00:00.162Z,101257.74
2019-01-12T05:02:28.024Z,101251.09
2019-01-12T05:04:55.212Z,101254.42
2019-01-12T05:07:22.611Z,101255.20
2019-01-12T05:09:49.760Z,101250.47
2019-01-12T05:12:16.966Z,101249.67
2019-01-12T05:14:44.110Z,101250.00
2019-01-12T05:17:11.320Z,101249.66
2019-01-12T05:19:38.492Z,101249.72
2019-01-12T05:22:05.692Z,101251.52
2019-01-12T05:24:32.867Z,101250.18
2019-01-12T05:27:00.049Z,101255.28
2019-01-12T05:29:27.238Z,101255.98
2019-01-12T05:31:54.294Z,101256.25
2019-01-12T05:34:22.397Z,101262.27
2019-01-12T05:36:49.886Z,101259.20
2019-01-12T05:39:17.055Z,101262.02
2019-01-12T05:41:44.273Z,101255.60
2019-01-12T05:44:11.439Z,101254.83
2019-01-12T05:46:38.628Z,101253.67
2019-01-12T05:49:05.845Z,101253.47
2019-01-12T05:51:33.054Z,101252.22
2019-01-12T05:54:00.250Z,101255.36
2019-01-12T05:56:27.495Z,101256.00
2019-01-12T05:58:54.717Z,101258.66
2019-01-12T06:01:21.903Z,101258.17
2019-01-12T06:03:49.111Z,101257.77
2019-01-12T06:06:16.311Z,101262.55
2019-01-12T06:08:43.494Z,101258.05
2019-01-12T06:11:10.669Z,101262.73
2019-01-12T06:13:37.757Z,101268.67
2019-01-12T06:16:05.007Z,101268.91
2019-01-12T06:18:32.286Z,101269.76
2019-01-12T06:20:59.336Z,101268.41
2019-01-12T06:23:26.546Z,101269.53
2019-01-12T06:25:53.731Z,101264.30
2019-01-12T06:28:21.236Z,101258.98
2019-01-12T06:30:48.473Z,101260.72
2019-01-12T06:33:15.548Z,101262.88
2019-01-12T06:35:42.940Z,101261.48
2019-01-12T06:38:10.145Z,101268.94
2019-01-12T06:40:37.332Z,101272.41
2019-01-12T06:43:04.528Z,101272.35
2019-01-12T06:45:31.681Z,101264.63
2019-01-12T06:47:58.770Z,101272.64
2019-01-12T06:50:25.819Z,101268.45
2019-01-12T06:52:52.995Z,101267.16
2019-01-12T06:55:20.089Z,101266.32
2019-01-12T06:57:47.315Z,101266.50
2019-01-12T07:00:16.387Z,101263.82
2019-01-12T07:02:43.589Z,101273.95
2019-01-12T07:05:10.769Z,101265.94
2019-01-12T07:07:38.241Z,101268.49
2019-01-12T07:10:06.440Z,101270.00
2019-01-12T07:12:33.606Z,101271.59
2019-01-12T07:15:00.795Z,101269.27
2019-01-12T07:17:28.004Z,101273.12
2019-01-12T07:19:55.171Z,101267.16
2019-01-12T07:22:22.331Z,101276.60
2019-01-12T07:24:49.538Z,101266.12
2019-01-12T07:27:16.696Z,101278.20
2019-01-12T07:29:43.875Z,101281.92
2019-01-12T07:32:11.087Z,101279.26
2019-01-12T07:34:38.504Z,101270.91
2019-01-12T07:37:05.587Z,101276.27
2019-01-12T07:39:32.764Z,101285.54
2019-01-12T07:41:59.821Z,101287.77
2019-01-12T07:44:27.019Z,101294.37
2019-01-12T07:46:54.615Z,101288.45
2019-01-12T07:49:21.783Z,101288.11
2019-01-12T07:51:48.966Z,101285.03
2019-01-12T07:54:16.458Z,101284.33
2019-01-12T07:56:43.615Z,101290.90
2019-01-12T07:59:10.829Z,101280.63
2019-01-12T08:01:38.026Z,101289.74
2019-01-12T08:04:05.202Z,101288.17
2019-01-12T08:06:32.467Z,101284.24
2019-01-12T08:08:59.658Z,101283.66
2019-01-12T08:11:27.089Z,101279.78
2019-01-12T08:13:54.202Z,101282.50
2019-01-12T08:16:21.380Z,101276.87
2019-01-12T08:18:48.441Z,101273.78
2019-01-12T08:21:15.888Z,101274.48
2019-01-12T08:23:43.106Z,101257.22
2019-01-12T08:26:10.252Z,101262.33
2019-01-12T08:28:37.448Z,101260.56
2019-01-12T08:31:04.768Z,101260.66
2019-01-12T08:33:31.954Z,101262.67
2019-01-12T08:35:59.075Z,101257.67
2019-01-12T08:38:26.263Z,101259.28
2019-01-12T08:40:53.426Z,101262.84
2019-01-12T08:43:20.628Z,101263.43
2019-01-12T08:45:47.797Z,101255.70
2019-01-12T08:48:14.885Z,101261.36
2019-01-12T08:50:41.999Z,101255.13
2019-01-12T08:53:09.303Z,101260.69
2019-01-12T08:55:36.457Z,101258.98
2019-01-12T08:58:03.677Z,101259.03
2019-01-12T09:00:30.789Z,101260.17
2019-01-12T09:02:57.970Z,101258.38
2019-01-12T09:05:25.080Z,101247.19
2019-01-12T09:07:52.296Z,101238.23
2019-01-12T09:10:20.411Z,101238.20
2019-01-12T09:12:47.689Z,101235.77
2019-01-12T09:15:15.136Z,101227.37
2019-01-12T09:17:42.553Z,101228.93
2019-01-12T09:20:11.087Z,101229.89
2019-01-12T09:22:38.277Z,101225.75
2019-01-12T09:25:06.433Z,101219.67
2019-01-12T09:27:33.624Z,101223.27
2019-01-12T09:30:00.837Z,101222.41
2019-01-12T09:32:28.008Z,101214.99
2019-01-12T09:34:55.183Z,101216.97
2019-01-12T09:37:22.455Z,101210.11
2019-01-12T09:39:49.957Z,101197.50
2019-01-12T09:42:17.047Z,101193.97
2019-01-12T09:44:44.215Z,101198.84
2019-01-12T09:47:11.268Z,101190.03
2019-01-12T09:49:38.487Z,101189.06
2019-01-12T09:52:05.664Z,101197.75
2019-01-12T09:54:32.881Z,101195.69
2019-01-12T09:57:00.079Z,101194.06
2019-01-12T09:59:27.331Z,101189.17
2019-01-12T10:01:55.342Z,101189.02
2019-01-12T10:04:22.534Z,101182.61
2019-01-12T10:06:49.766Z,101182.84
2019-01-12T10:09:16.974Z,101167.62
2019-01-12T10:11:44.469Z,101160.29
2019-01-12T10:14:11.688Z,101172.13
2019-01-12T10:16:38.851Z,101174.98
2019-01-12T10:19:06.340Z,101173.78
2019-01-12T10:21:33.843Z,101184.52
2019-01-12T10:24:00.928Z,101187.50
2019-01-12T10:26:28.077Z,101176.19
2019-01-12T10:28:55.194Z,101162.33
2019-01-12T10:31:22.362Z,101140.48
2019-01-12T10:33:49.524Z,101135.92
2019-01-12T10:36:16.866Z,101139.91
2019-01-12T10:38:44.339Z,101118.47
2019-01-12T10:41:11.582Z,101122.78
2019-01-12T10:43:39.116Z,101126.50
2019-01-12T10:46:06.564Z,101121.63
2019-01-12T10:48:33.989Z,101114.47
2019-01-12T10:51:01.123Z,101118.70
2019-01-12T10:53:28.860Z,101119.23
2019-01-12T10:55:56.041Z,101106.95
2019-01-12T10:58:23.215Z,101103.42
2019-01-12T11:00:50.421Z,101092.34
2019-01-12T11:03:17.887Z,101088.44
2019-01-12T11:05:45.039Z,101077.87
2019-01-12T11:08:12.515Z,101078.91
2019-01-12T11:10:39.709Z,101076.50
2019-01-12T11:13:06.938Z,101076.66
2019-01-12T11:15:34.129Z,101074.03
2019-01-12T11:18:01.172Z,101070.05
2019-01-12T11:20:28.409Z,101076.05
2019-01-12T11:22:55.578Z,101075.48
2019-01-12T11:25:22.762Z,101073.77
2019-01-12T11:27:50.275Z,101060.14
2019-01-12T11:30:18.074Z,101060.36
2019-01-12T11:32:45.251Z,101061.14
2019-01-12T11:35:12.985Z,101047.30
2019-01-12T11:37:40.211Z,101042.92
2019-01-12T11:40:17.824Z,101045.48
2019-01-12T11:42:45.608Z,101022.92
2019-01-12T11:45:13.341Z,101024.04
2019-01-12T11:47:40.512Z,101013.66
2019-01-12T11:50:10.499Z,101006.14
2019-01-12T11:52:37.972Z,100998.27
2019-01-12T11:55:05.866Z,101012.34
2019-01-12T11:57:33.284Z,101023.91
2019-01-12T12:00:00.487Z,101015.73
2019-01-12T12:02:27.943Z,101002.81
2019-01-12T12:04:55.178Z,101001.66
2019-01-12T12:07:22.387Z,101003.09
2019-01-12T12:09:49.583Z,101001.66
2019-01-12T12:12:16.770Z,100997.27
2019-01-12T12:14:43.954Z,100974.68
2019-01-12T12:17:11.215Z,100970.83
2019-01-12T12:19:38.737Z,100975.24
2019-01-12T12:22:05.982Z,100970.55
2019-01-12T12:24:33.221Z,100972.13
2019-01-12T12:27:00.395Z,100954.33
2019-01-12T12:29:27.583Z,100942.89
2019-01-12T12:31:54.872Z,100936.34
2019-01-12T12:34:21.953Z,100923.22
2019-01-12T12:36:49.585Z,100924.25
2019-01-12T12:39:16.851Z,100918.81
2019-01-12T12:41:44.313Z,100922.52
2019-01-12T12:44:11.464Z,100907.71
2019-01-12T12:46:38.934Z,100896.41
2019-01-12T12:49:06.091Z,100889.28
2019-01-12T12:51:33.263Z,100881.80
2019-01-12T12:54:00.602Z,100875.80
2019-01-12T12:56:28.019Z,100875.33
2019-01-12T12:58:55.193Z,100871.89
2019-01-12T13:01:22.377Z,100862.53
2019-01-12T13:03:49.537Z,100848.02
2019-01-12T13:06:16.774Z,100849.42
2019-01-12T13:08:48.452Z,100856.26
2019-01-12T13:11:12.961Z,100858.14
2019-01-12T13:13:41.290Z,100848.83
2019-01-12T13:16:08.404Z,100840.70
2019-01-12T13:18:35.605Z,100838.23
2019-01-12T13:21:02.847Z,100835.98
2019-01-12T13:23:30.367Z,100823.27
2019-01-12T13:25:57.563Z,100811.67
2019-01-12T13:28:24.757Z,100814.30
2019-01-12T13:30:52.207Z,100811.39
2019-01-12T13:33:19.590Z,100812.91
2019-01-12T13:35:46.657Z,100815.70
2019-01-12T13:38:13.920Z,100803.81
2019-01-12T13:40:41.090Z,100803.15
2019-01-12T13:43:08.279Z,100801.77
2019-01-12T13:45:35.457Z,100782.47
2019-01-12T13:48:03.188Z,100789.48
2019-01-12T13:50:30.288Z,100788.30
2019-01-12T13:52:57.514Z,100783.50
2019-01-12T13:55:24.702Z,100777.61
2019-01-12T13:57:51.766Z,100774.52
2019-01-12T14:00:30.324Z,100766.55
2019-01-12T14:02:57.522Z,100755.52
2019-01-12T14:05:24.748Z,100760.20
2019-01-12T14:07:56.045Z,100754.49
2019-01-12T14:10:21.366Z,100760.84
2019-01-12T14:12:48.658Z,100763.84
2019-01-12T14:15:16.345Z,100751.30
2019-01-12T14:17:43.428Z,100750.18
2019-01-12T14:20:16.483Z,100744.45
2019-01-12T14:22:43.847Z,100753.50
2019-01-12T14:25:11.006Z,100741.31
2019-01-12T14:27:38.156Z,100725.63
2019-01-12T14:30:08.109Z,100732.53
2019-01-12T14:32:35.567Z,100729.89
2019-01-12T14:35:03.260Z,100719.45
2019-01-12T14:37:30.498Z,100718.29
2019-01-12T14:39:57.880Z,100704.18
2019-01-12T14:42:25.371Z,100706.44
2019-01-12T14:44:52.865Z,100695.48
2019-01-12T14:47:20.057Z,100704.05
2019-01-12T14:49:47.117Z,100701.53
2019-01-12T14:52:14.354Z,100696.14
2019-01-12T14:54:41.526Z,100693.86
2019-01-12T14:57:08.717Z,100684.95
2019-01-12T14:59:35.953Z,100683.94
2019-01-12T15:02:03.211Z,100681.88
2019-01-12T15:04:30.380Z,100685.77
2019-01-12T15:06:57.647Z,100682.90
2019-01-12T15:09:24.790Z,100687.75
2019-01-12T15:11:51.961Z,100678.78
2019-01-12T15:14:19.448Z,100671.83
2019-01-12T15:16:46.601Z,100670.87
2019-01-12T15:19:14.053Z,100658.73
2019-01-12T15:21:41.564Z,100658.45
2019-01-12T15:24:10.179Z,100662.16
2019-01-12T15:26:37.373Z,100660.56
2019-01-12T15:29:04.580Z,100655.16
2019-01-12T15:31:31.725Z,100653.20
2019-01-12T15:33:58.888Z,100661.58
2019-01-12T15:36:26.042Z,100655.81
2019-01-12T15:38:53.164Z,100649.73
2019-01-12T15:41:20.670Z,100647.77
2019-01-12T15:43:47.861Z,100640.14
2019-01-12T15:46:15.390Z,100649.76
2019-01-12T15:48:42.574Z,100636.11
2019-01-12T15:51:09.696Z,100634.80
2019-01-12T15:53:36.876Z,100638.84
2019-01-12T15:56:04.085Z,100639.09
2019-01-12T15:58:31.303Z,100635.66
2019-01-12T16:00:58.511Z,100636.39
2019-01-12T16:03:25.982Z,100635.28
2019-01-12T16:05:53.099Z,100637.13
2019-01-12T16:08:20.445Z,100629.39
2019-01-12T16:10:47.644Z,100632.66
2019-01-12T16:13:14.748Z,100621.53
2019-01-12T16:15:41.901Z,100625.62
2019-01-12T16:18:09.404Z,100622.86
2019-01-12T16:20:37.904Z,100630.78
2019-01-12T16:23:05.150Z,100630.97
2019-01-12T16:25:32.323Z,100629.09
2019-01-12T16:27:59.527Z,100627.70
2019-01-12T16:30:26.715Z,100625.61
2019-01-12T16:32:53.885Z,100632.93
2019-01-12T16:35:21.144Z,100632.66
2019-01-12T16:37:48.327Z,100629.02
2019-01-12T16:40:17.569Z,100621.98
2019-01-12T16:42:44.820Z,100615.53
2019-01-12T16:45:12.272Z,100613.98
2019-01-12T16:47:39.368Z,100606.13
2019-01-12T16:50:06.609Z,100598.80
2019-01-12T16:52:34.070Z,100597.50
2019-01-12T16:55:01.305Z,100595.81
2019-01-12T16:57:28.603Z,100585.98
2019-01-12T16:59:55.786Z,100587.78
2019-01-12T17:02:23.028Z,100580.48
2019-01-12T17:04:50.208Z,100576.18
2019-01-12T17:07:17.409Z,100565.99
2019-01-12T17:09:44.911Z,100563.20
2019-01-12T17:12:12.198Z,100562.91
2019-01-12T17:14:39.372Z,100558.97
2019-01-12T17:17:06.604Z,100563.53
2019-01-12T17:19:34.116Z,100558.68
2019-01-12T17:22:01.527Z,100543.95
2019-01-12T17:24:28.801Z,100541.22
2019-01-12T17:26:55.997Z,100537.78
2019-01-12T17:29:23.242Z,100538.59
2019-01-12T17:31:50.606Z,100532.34
2019-01-12T17:34:17.792Z,100544.59
2019-01-12T17:36:44.856Z,100534.30
2019-01-12T17:39:12.059Z,100533.10
2019-01-12T17:41:39.532Z,100527.76
2019-01-12T17:44:06.983Z,100522.73
2019-01-12T17:46:34.405Z,100515.55
2019-01-12T17:49:01.605Z,100513.75
2019-01-12T17:51:29.085Z,100508.92
2019-01-12T17:53:56.307Z,100505.82
2019-01-12T17:56:23.517Z,100502.47
2019-01-12T17:58:50.999Z,100497.80
2019-01-12T18:01:18.154Z,100498.25
2019-01-12T18:03:45.451Z,100486.86
2019-01-12T18:06:13.732Z,100490.12
2019-01-12T18:08:41.060Z,100490.33
2019-01-12T18:11:08.283Z,100488.81
2019-01-12T18:13:35.390Z,100481.98
2019-01-12T18:16:02.712Z,100480.51
2019-01-12T18:18:29.933Z,100473.60
2019-01-12T18:20:57.025Z,100466.58
2019-01-12T18:23:24.201Z,100464.70
2019-01-12T18:25:51.749Z,100459.95
2019-01-12T18:28:19.249Z,100456.20
2019-01-12T18:30:46.443Z,100450.23
2019-01-12T18:33:13.554Z,100442.95
2019-01-12T18:35:40.720Z,100452.84
2019-01-12T18:38:07.925Z,100457.34
2019-01-12T18:40:35.173Z,100461.06
2019-01-12T18:43:02.414Z,100455.09
2019-01-12T18:45:29.659Z,100455.55
2019-01-12T18:47:56.850Z,100449.66
2019-01-12T18:50:25.129Z,100457.70
2019-01-12T18:52:53.144Z,100454.72
2019-01-12T18:55:20.688Z,100447.34
2019-01-12T18:57:48.314Z,100453.42
2019-01-12T19:00:18.555Z,100449.21
2019-01-12T19:02:46.187Z,100450.52
2019-01-12T19:05:13.862Z,100446.14
2019-01-12T19:07:41.316Z,100440.14
2019-01-12T19:10:09.160Z,100453.87
2019-01-12T19:12:36.479Z,100455.02
2019-01-12T19:15:05.599Z,100441.94
2019-01-12T19:17:32.847Z,100440.26
2019-01-12T19:20:00.291Z,100437.15
2019-01-12T19:22:27.747Z,100433.52
2019-01-12T19:24:54.948Z,100432.20
2019-01-12T19:27:22.135Z,100436.05
2019-01-12T19:29:49.325Z,100439.04
2019-01-12T19:32:16.545Z,100438.84
2019-01-12T19:34:44.025Z,100446.80
2019-01-12T19:37:11.145Z,100436.22
2019-01-12T19:39:38.658Z,100442.95
2019-01-12T19:42:05.995Z,100443.89
2019-01-12T19:44:33.196Z,100436.22
2019-01-12T19:47:00.389Z,100441.17
2019-01-12T19:49:27.665Z,100442.59
2019-01-12T19:51:55.179Z,100441.94
2019-01-12T19:54:22.402Z,100449.50
2019-01-12T19:56:49.626Z,100446.88
2019-01-12T19:59:17.107Z,100447.63
2019-01-12T20:01:44.765Z,100433.97
2019-01-12T20:04:11.931Z,100432.30
2019-01-12T20:06:39.074Z,100445.48
2019-01-12T20:09:08.101Z,100437.36
2019-01-12T20:11:35.404Z,100424.37
2019-01-12T20:14:03.105Z,100424.28
2019-01-12T20:16:30.628Z,100427.35
2019-01-12T20:18:57.701Z,100412.59
2019-01-12T20:21:24.897Z,100403.35
2019-01-12T20:23:51.979Z,100391.59
2019-01-12T20:26:19.168Z,100379.97
2019-01-12T20:28:47.315Z,100375.86
2019-01-12T20:31:24.013Z,100376.16
2019-01-12T20:34:47.756Z,100371.01
2019-01-12T20:37:51.965Z,100369.42
2019-01-12T20:40:55.901Z,100366.55
2019-01-12T20:44:02.268Z,100365.53
2019-01-12T20:47:13.212Z,100358.60
2019-01-12T20:50:06.233Z,100354.69
2019-01-12T20:53:03.206Z,100360.08
2019-01-12T20:55:42.875Z,100351.02
2019-01-12T20:58:41.948Z,100345.27
2019-01-12T21:02:12.191Z,100361.08
2019-01-12T21:05:11.667Z,100357.00
2019-01-12T21:07:56.324Z,100360.28
2019-01-12T21:11:18.730Z,100363.17
2019-01-12T21:14:01.417Z,100358.87
2019-01-12T21:16:32.248Z,100368.76
2019-01-12T21:18:59.705Z,100379.88
2019-01-12T21:21:26.957Z,100365.13
2019-01-12T21:23:54.167Z,100372.30
2019-01-12T21:26:21.237Z,100366.73
2019-01-12T21:28:48.473Z,100371.30
2019-01-12T21:31:15.629Z,100388.80
2019-01-12T21:33:43.367Z,100382.94
2019-01-12T21:36:10.631Z,100373.63
2019-01-12T21:38:38.798Z,100362.14
2019-01-12T21:41:05.969Z,100358.60
2019-01-12T21:43:33.223Z,100375.69
2019-01-12T21:46:00.385Z,100368.98
2019-01-12T21:48:28.268Z,100360.19
2019-01-12T21:50:55.477Z,100355.50
2019-01-12T21:53:22.780Z,100360.94
2019-01-12T21:55:49.973Z,100364.28
2019-01-12T21:58:17.821Z,100351.98
2019-01-12T22:00:45.153Z,100355.31
2019-01-12T22:03:12.257Z,100353.42
2019-01-12T22:05:39.731Z,100357.37
2019-01-12T22:08:06.888Z,100343.73
2019-01-12T22:10:34.108Z,100349.91
2019-01-12T22:13:01.357Z,100349.91
2019-01-12T22:15:28.656Z,100347.28
2019-01-12T22:17:55.742Z,100356.16
2019-01-12T22:20:23.238Z,100343.57
2019-01-12T22:22:50.410Z,100348.89
2019-01-12T22:25:17.623Z,100351.88
2019-01-12T22:27:45.162Z,100348.80
2019-01-12T22:30:14.460Z,100347.20
2019-01-12T22:32:41.667Z,100353.90
2019-01-12T22:35:08.872Z,100359.13
2019-01-12T22:37:36.308Z,100342.39
2019-01-12T22:40:06.941Z,100340.34
2019-01-12T22:42:34.182Z,100326.71
2019-01-12T22:45:01.254Z,100328.81
2019-01-12T22:47:28.570Z,100323.11
2019-01-12T22:49:55.677Z,100321.87
2019-01-12T22:52:23.131Z,100331.58
2019-01-12T22:54:51.160Z,100317.41
2019-01-12T22:57:18.356Z,100324.11
2019-01-12T22:59:45.566Z,100318.42
2019-01-12T23:02:12.763Z,100325.25
2019-01-12T23:04:39.975Z,100322.33
2019-01-12T23:07:11.421Z,100317.02
2019-01-12T23:09:36.574Z,100313.52
2019-01-12T23:12:04.180Z,100312.21
2019-01-12T23:14:32.976Z,100301.76
2019-01-12T23:17:00.329Z,100308.05
2019-01-12T23:19:27.773Z,100302.27
2019-01-12T23:21:54.943Z,100303.25
2019-01-12T23:24:22.027Z,100303.83
2019-01-12T23:26:49.983Z,100311.70
2019-01-12T23:29:17.167Z,100311.07
2019-01-12T23:31:44.253Z,100307.05
2019-01-12T23:34:11.480Z,100312.09
2019-01-12T23:36:38.807Z,100311.31
2019-01-12T23:39:09.818Z,100305.16
2019-01-12T23:41:37.026Z,100307.19
2019-01-12T23:44:04.247Z,100302.66
2019-01-12T23:46:31.428Z,100295.88
2019-01-12T23:48:58.612Z,100294.17
2019-01-12T23:51:25.821Z,100291.19
2019-01-12T23:53:53.251Z,100285.01
2019-01-12T23:56:21.096Z,100288.22
2019-01-12T23:58:48.265Z,100280.00
